createdAt,value
2022-08-11T00:01:51.093Z,4.23
2022-08-11T00:03:55.749Z,4.50
2022-08-11T00:05:58.419Z,4.13
2022-08-11T00:08:01.702Z,3.80
2022-08-11T00:10:04.489Z,3.97
2022-08-11T00:12:08.052Z,4.60
2022-08-11T00:14:15.445Z,3.97
2022-08-11T00:16:19.456Z,4.00
2022-08-11T00:18:23.410Z,4.17
2022-08-11T00:20:29.945Z,4.03
2022-08-11T00:22:32.750Z,3.90
2022-08-11T00:24:38.692Z,3.80
2022-08-11T00:26:58.014Z,4.50
2022-08-11T00:29:09.299Z,3.80
2022-08-11T00:31:12.902Z,4.67
2022-08-11T00:33:17.000Z,4.07
2022-08-11T00:35:55.788Z,4.37
2022-08-11T00:37:46.295Z,4.00
2022-08-11T00:39:54.467Z,3.80
2022-08-11T00:42:07.581Z,3.67
2022-08-11T00:44:24.589Z,3.83
2022-08-11T00:46:33.473Z,3.80
2022-08-11T00:48:38.640Z,3.60
2022-08-11T00:50:47.200Z,3.67
2022-08-11T00:53:00.303Z,4.27
2022-08-11T00:55:12.279Z,4.33
2022-08-11T00:57:37.235Z,3.63
2022-08-11T00:59:55.623Z,3.73
2022-08-11T01:02:00.398Z,4.10
2022-08-11T01:04:24.680Z,3.93
2022-08-11T01:06:49.398Z,3.77
2022-08-11T01:09:22.297Z,4.13
2022-08-11T01:11:39.063Z,4.50
2022-08-11T01:14:33.698Z,4.00
2022-08-11T01:16:54.916Z,4.57
2022-08-11T01:19:12.841Z,4.67
2022-08-11T01:21:30.870Z,4.90
2022-08-11T01:23:52.564Z,4.37
2022-08-11T01:26:02.234Z,4.37
2022-08-11T01:28:26.459Z,4.40
2022-08-11T01:30:49.029Z,4.47
2022-08-11T01:33:11.525Z,4.70
2022-08-11T01:35:31.997Z,4.47
2022-08-11T01:37:57.110Z,4.83
2022-08-11T01:40:17.636Z,4.40
2022-08-11T01:42:49.929Z,4.63
2022-08-11T01:45:07.825Z,4.30
2022-08-11T01:47:38.455Z,4.67
2022-08-11T01:50:08.242Z,4.73
2022-08-11T01:52:18.528Z,4.70
2022-08-11T01:54:22.999Z,4.53
2022-08-11T01:56:43.383Z,4.83
2022-08-11T01:58:48.842Z,5.10
2022-08-11T02:00:55.681Z,4.40
2022-08-11T02:03:01.576Z,4.63
2022-08-11T02:05:08.035Z,4.80
2022-08-11T02:07:14.660Z,5.00
2022-08-11T02:09:21.464Z,4.73
2022-08-11T02:11:35.851Z,5.07
2022-08-11T02:13:43.403Z,4.80
2022-08-11T02:15:51.398Z,4.80
2022-08-11T02:18:00.674Z,4.40
2022-08-11T02:20:22.190Z,4.77
2022-08-11T02:22:39.875Z,4.57
2022-08-11T02:24:50.237Z,4.30
2022-08-11T02:26:59.633Z,4.57
2022-08-11T02:29:06.502Z,5.63
2022-08-11T02:32:24.895Z,4.40
2022-08-11T02:33:47.387Z,4.53
2022-08-11T02:35:58.429Z,4.27
2022-08-11T02:38:07.977Z,4.87
2022-08-11T02:40:20.897Z,4.53
2022-08-11T02:42:42.471Z,4.60
2022-08-11T02:44:49.146Z,4.63
2022-08-11T02:46:56.883Z,4.87
2022-08-11T02:49:14.494Z,4.67
2022-08-11T02:51:22.484Z,4.60
2022-08-11T02:53:29.553Z,4.57
2022-08-11T02:55:46.970Z,4.57
2022-08-11T02:58:03.255Z,4.70
2022-08-11T03:00:07.486Z,4.87
2022-08-11T03:02:13.205Z,4.83
2022-08-11T03:04:19.601Z,5.40
2022-08-11T03:06:28.812Z,4.80
2022-08-11T03:08:40.047Z,4.70
2022-08-11T03:11:09.767Z,5.50
2022-08-11T03:13:28.252Z,4.80
2022-08-11T03:15:46.967Z,4.77
2022-08-11T03:17:53.216Z,4.70
2022-08-11T03:20:09.878Z,4.90
2022-08-11T03:22:21.272Z,4.90
2022-08-11T03:24:26.755Z,4.90
2022-08-11T03:26:33.040Z,4.27
2022-08-11T03:28:37.698Z,4.67
2022-08-11T03:30:44.608Z,4.97
2022-08-11T03:33:07.276Z,5.20
2022-08-11T03:35:11.424Z,5.00
2022-08-11T03:37:40.710Z,4.93
2022-08-11T03:39:55.545Z,5.30
2022-08-11T03:42:07.608Z,4.73
2022-08-11T03:44:21.485Z,5.53
2022-08-11T03:46:32.862Z,4.80
2022-08-11T03:48:41.653Z,4.63
2022-08-11T03:50:56.394Z,4.63
2022-08-11T03:53:06.933Z,5.20
2022-08-11T03:55:11.949Z,4.90
2022-08-11T04:00:04.096Z,5.13
2022-08-11T04:02:15.301Z,4.93
2022-08-11T04:04:31.944Z,4.80
2022-08-11T04:06:51.079Z,5.10
2022-08-11T04:09:02.856Z,5.40
2022-08-11T04:11:22.276Z,5.00
2022-08-11T04:13:41.604Z,5.00
2022-08-11T04:16:12.445Z,5.23
2022-08-11T04:18:23.969Z,5.53
2022-08-11T04:20:45.029Z,4.77
2022-08-11T04:22:55.976Z,5.53
2022-08-11T04:25:03.952Z,5.40
2022-08-11T04:27:36.948Z,5.17
2022-08-11T04:30:00.901Z,5.30
2022-08-11T04:32:17.371Z,4.77
2022-08-11T04:34:38.002Z,5.50
2022-08-11T04:37:14.047Z,5.63
2022-08-11T04:39:20.503Z,5.87
2022-08-11T04:42:05.791Z,4.73
2022-08-11T04:44:19.935Z,5.23
2022-08-11T04:46:29.577Z,5.23
2022-08-11T04:49:05.185Z,5.40
2022-08-11T04:51:33.194Z,5.17
2022-08-11T04:53:53.809Z,5.80
2022-08-11T04:56:15.585Z,4.90
2022-08-11T04:58:31.772Z,5.53
2022-08-11T05:00:50.676Z,5.63
2022-08-11T05:03:14.119Z,5.53
2022-08-11T05:05:31.245Z,5.47
2022-08-11T05:08:00.593Z,5.73
2022-08-11T05:10:10.137Z,5.83
2022-08-11T05:12:21.075Z,6.00
2022-08-11T05:14:44.605Z,6.03
2022-08-11T05:17:00.935Z,5.70
2022-08-11T05:19:16.223Z,6.47
2022-08-11T05:21:44.385Z,6.03
2022-08-11T05:24:01.371Z,6.17
2022-08-11T05:26:47.474Z,5.87
2022-08-11T05:28:50.498Z,6.27
2022-08-11T05:31:06.615Z,6.00
2022-08-11T05:33:22.883Z,5.50
2022-08-11T05:36:00.874Z,6.53
2022-08-11T05:38:03.134Z,6.43
2022-08-11T05:40:18.703Z,6.97
2022-08-11T05:42:34.118Z,6.43
2022-08-11T05:44:48.206Z,6.27
2022-08-11T05:47:01.838Z,6.53
2022-08-11T05:49:15.456Z,5.40
2022-08-11T05:51:30.597Z,6.40
2022-08-11T05:53:46.606Z,5.70
2022-08-11T05:56:03.571Z,5.73
2022-08-11T05:58:08.964Z,6.00
2022-08-11T06:00:12.409Z,5.80
2022-08-11T06:02:15.198Z,5.87
2022-08-11T06:04:19.963Z,6.80
2022-08-11T06:06:23.074Z,7.47
2022-08-11T06:08:29.439Z,6.40
2022-08-11T06:10:34.625Z,6.13
2022-08-11T06:12:37.934Z,5.43
2022-08-11T06:14:43.944Z,6.00
2022-08-11T06:16:49.592Z,6.00
2022-08-11T06:18:52.235Z,5.80
2022-08-11T06:20:57.889Z,6.37
2022-08-11T06:23:03.576Z,5.77
2022-08-11T06:25:07.724Z,5.77
2022-08-11T06:27:13.337Z,6.63
2022-08-11T06:29:18.413Z,6.43
2022-08-11T06:31:24.073Z,5.50
2022-08-11T06:33:31.576Z,10.67
2022-08-11T06:35:37.937Z,5.60
2022-08-11T06:37:46.647Z,6.00
2022-08-11T06:39:53.509Z,5.90
2022-08-11T06:41:59.684Z,6.20
2022-08-11T06:44:10.715Z,5.57
2022-08-11T06:46:13.371Z,5.93
2022-08-11T06:48:31.744Z,5.97
2022-08-11T06:50:45.348Z,5.30
2022-08-11T06:52:48.195Z,5.23
2022-08-11T06:55:04.180Z,5.27
2022-08-11T06:57:33.658Z,5.40
2022-08-11T06:59:48.667Z,5.20
2022-08-11T07:01:57.593Z,5.37
2022-08-11T07:04:03.769Z,5.13
2022-08-11T07:06:12.050Z,5.33
2022-08-11T07:08:37.654Z,5.20
2022-08-11T07:10:59.550Z,6.87
2022-08-11T07:13:44.494Z,4.97
2022-08-11T07:16:11.789Z,4.73
2022-08-11T07:18:22.191Z,4.90
2022-08-11T07:20:39.251Z,5.13
2022-08-11T07:22:58.635Z,7.10
2022-08-11T07:25:13.762Z,5.13
2022-08-11T07:27:34.980Z,4.77
2022-08-11T07:29:39.023Z,5.23
2022-08-11T07:31:44.662Z,5.23
2022-08-11T07:34:07.127Z,6.57
2022-08-11T07:36:13.715Z,5.40
2022-08-11T07:38:22.690Z,4.90
2022-08-11T07:40:27.898Z,6.10
2022-08-11T07:42:34.365Z,5.07
2022-08-11T07:44:57.601Z,4.70
2022-08-11T07:47:12.518Z,4.60
2022-08-11T07:49:26.611Z,4.63
2022-08-11T07:51:40.209Z,5.07
2022-08-11T07:53:58.813Z,5.43
2022-08-11T07:56:08.028Z,4.60
2022-08-11T07:58:24.915Z,4.47
2022-08-11T08:00:42.000Z,4.70
2022-08-11T08:02:57.318Z,5.37
2022-08-11T08:05:10.930Z,4.33
2022-08-11T08:07:24.609Z,4.90
2022-08-11T08:09:38.650Z,4.60
2022-08-11T08:11:53.359Z,4.73
2022-08-11T08:14:07.148Z,12.20
2022-08-11T08:16:21.279Z,5.23
2022-08-11T08:18:27.780Z,4.87
2022-08-11T08:20:32.406Z,5.20
2022-08-11T08:22:38.826Z,5.40
2022-08-11T08:24:42.664Z,4.50
2022-08-11T08:26:56.311Z,4.90
2022-08-11T08:29:21.405Z,5.00
2022-08-11T08:31:25.502Z,5.17
2022-08-11T08:33:30.953Z,5.37
2022-08-11T08:35:33.709Z,4.60
2022-08-11T08:37:47.036Z,5.00
2022-08-11T08:39:51.313Z,5.23
2022-08-11T08:41:55.411Z,4.83
2022-08-11T08:44:20.699Z,5.37
2022-08-11T08:46:25.074Z,4.60
2022-08-11T08:48:29.065Z,4.87
2022-08-11T08:50:47.635Z,4.10
2022-08-11T08:52:53.546Z,4.07
2022-08-11T08:54:57.692Z,5.00
2022-08-11T08:57:02.963Z,4.53
2022-08-11T08:59:05.679Z,4.23
2022-08-11T09:01:08.381Z,4.00
2022-08-11T09:03:38.579Z,4.03
2022-08-11T09:05:35.267Z,4.20
2022-08-11T09:07:38.999Z,4.10
2022-08-11T09:09:42.990Z,4.17
2022-08-11T09:11:53.526Z,4.90
2022-08-11T09:14:04.927Z,4.33
2022-08-11T09:16:12.317Z,5.90
2022-08-11T09:18:15.153Z,4.70
2022-08-11T09:20:20.715Z,4.30
2022-08-11T09:22:35.739Z,4.10
2022-08-11T09:24:49.806Z,3.90
2022-08-11T09:27:03.886Z,3.80
2022-08-11T09:29:06.703Z,3.97
2022-08-11T09:31:10.801Z,3.93
2022-08-11T09:33:15.843Z,3.93
2022-08-11T09:35:19.426Z,3.70
2022-08-11T09:37:54.251Z,3.30
2022-08-11T09:40:08.559Z,3.70
2022-08-11T09:42:16.503Z,3.17
2022-08-11T09:44:38.334Z,3.60
2022-08-11T09:46:42.583Z,3.07
2022-08-11T09:48:46.536Z,2.80
2022-08-11T09:50:50.726Z,3.57
2022-08-11T09:53:35.192Z,3.70
2022-08-11T09:55:17.413Z,3.20
2022-08-11T09:57:32.218Z,3.27
2022-08-11T09:59:34.917Z,3.83
2022-08-11T10:01:47.233Z,3.17
2022-08-11T10:03:50.352Z,2.93
2022-08-11T10:06:08.153Z,2.70
2022-08-11T10:08:14.228Z,3.13
2022-08-11T10:10:22.833Z,3.37
2022-08-11T10:12:27.891Z,3.00
2022-08-11T10:14:45.195Z,2.93
2022-08-11T10:16:47.873Z,3.10
2022-08-11T10:18:52.744Z,3.30
2022-08-11T10:20:59.873Z,3.10
2022-08-11T10:23:14.431Z,3.00
2022-08-11T10:25:29.463Z,2.90
2022-08-11T10:27:38.025Z,3.30
2022-08-11T10:30:06.523Z,3.33
2022-08-11T10:32:21.000Z,3.07
2022-08-11T10:34:29.853Z,3.47
2022-08-11T10:36:34.841Z,3.90
2022-08-11T10:38:37.943Z,3.37
2022-08-11T10:40:42.114Z,3.30
2022-08-11T10:42:58.194Z,3.60
2022-08-11T10:45:01.472Z,2.83
2022-08-11T10:47:16.031Z,3.10
2022-08-11T10:49:18.771Z,2.93
2022-08-11T10:51:49.996Z,3.30
2022-08-11T10:53:55.352Z,3.67
2022-08-11T10:56:10.368Z,2.90
2022-08-11T10:58:24.038Z,3.17
2022-08-11T11:00:26.861Z,3.13
2022-08-11T11:02:29.930Z,3.30
2022-08-11T11:04:36.911Z,3.27
2022-08-11T11:06:51.767Z,2.93
2022-08-11T11:09:03.788Z,2.97
2022-08-11T11:11:09.313Z,2.60
2022-08-11T11:13:31.955Z,2.83
2022-08-11T11:15:50.979Z,2.90
2022-08-11T11:18:01.445Z,3.10
2022-08-11T11:20:04.802Z,2.87
2022-08-11T11:22:21.812Z,2.93
2022-08-11T11:24:33.873Z,3.03
2022-08-11T11:26:40.532Z,3.20
2022-08-11T11:28:55.217Z,2.90
2022-08-11T11:31:05.013Z,2.77
2022-08-11T11:33:11.733Z,2.80
2022-08-11T11:35:27.682Z,3.20
2022-08-11T11:37:31.192Z,2.73
2022-08-11T11:39:34.180Z,2.73
2022-08-11T11:41:37.003Z,2.73
2022-08-11T11:43:41.371Z,2.60
2022-08-11T11:45:44.059Z,3.80
2022-08-11T11:47:46.855Z,2.83
2022-08-11T11:49:53.066Z,2.40
2022-08-11T11:51:56.803Z,3.13
2022-08-11T11:53:59.542Z,2.60
2022-08-11T11:56:03.192Z,2.73
2022-08-11T11:58:18.483Z,2.73
2022-08-11T12:00:34.039Z,2.83
2022-08-11T12:02:36.836Z,2.77
2022-08-11T12:04:40.184Z,2.70
2022-08-11T12:06:43.410Z,2.90
2022-08-11T12:08:45.245Z,2.80
2022-08-11T12:10:48.927Z,4.40
2022-08-11T12:13:03.110Z,2.60
2022-08-11T12:15:06.474Z,2.97
2022-08-11T12:17:10.420Z,2.57
2022-08-11T12:19:14.471Z,2.60
2022-08-11T12:21:17.631Z,2.90
2022-08-11T12:23:31.267Z,2.57
2022-08-11T12:25:44.986Z,2.43
2022-08-11T12:27:47.729Z,2.70
2022-08-11T12:29:55.493Z,2.43
2022-08-11T12:32:00.413Z,2.70
2022-08-11T12:34:05.111Z,2.47
2022-08-11T12:36:09.065Z,2.70
2022-08-11T12:38:12.752Z,2.53
2022-08-11T12:40:49.659Z,2.50
2022-08-11T12:43:04.183Z,2.47
2022-08-11T12:45:29.802Z,2.50
2022-08-11T12:48:57.292Z,2.50
2022-08-11T12:50:29.132Z,3.17
2022-08-11T12:52:35.595Z,2.40
2022-08-11T12:54:44.172Z,2.47
2022-08-11T12:56:59.760Z,2.50
2022-08-11T12:59:13.394Z,2.80
2022-08-11T13:01:27.452Z,2.70
2022-08-11T13:03:52.404Z,2.50
2022-08-11T13:06:02.490Z,3.00
2022-08-11T13:08:06.527Z,2.40
2022-08-11T13:10:16.998Z,2.20
2022-08-11T13:12:34.204Z,2.80
2022-08-11T13:14:41.875Z,2.50
2022-08-11T13:17:00.086Z,2.73
2022-08-11T13:19:02.804Z,2.60
2022-08-11T13:21:07.133Z,2.50
2022-08-11T13:23:12.903Z,2.40
2022-08-11T13:25:16.220Z,2.40
2022-08-11T13:27:20.407Z,2.47
2022-08-11T13:29:24.081Z,2.53
2022-08-11T13:31:26.787Z,2.40
2022-08-11T13:33:29.761Z,2.60
2022-08-11T13:35:32.677Z,2.30
2022-08-11T13:38:18.660Z,2.67
2022-08-11T13:39:59.388Z,2.30
2022-08-11T13:42:02.558Z,2.90
2022-08-11T13:44:05.601Z,2.50
2022-08-11T13:46:19.590Z,2.53
2022-08-11T13:48:23.978Z,2.70
2022-08-11T13:50:47.804Z,2.60
2022-08-11T13:52:53.346Z,2.30
2022-08-11T13:54:56.074Z,2.50
2022-08-11T13:57:02.395Z,2.73
2022-08-11T13:59:05.160Z,2.90
2022-08-11T14:01:11.252Z,3.07
2022-08-11T14:04:29.734Z,2.60
2022-08-11T14:05:56.511Z,2.63
2022-08-11T14:08:02.821Z,2.60
2022-08-11T14:10:07.142Z,2.43
2022-08-11T14:12:24.549Z,2.50
2022-08-11T14:14:28.589Z,2.30
2022-08-11T14:16:33.067Z,2.07
2022-08-11T14:18:36.411Z,2.90
2022-08-11T14:20:52.881Z,3.10
2022-08-11T14:22:56.459Z,2.67
2022-08-11T14:25:00.414Z,2.60
2022-08-11T14:27:03.541Z,2.83
2022-08-11T14:29:09.177Z,3.53
2022-08-11T14:31:11.851Z,3.10
2022-08-11T14:33:16.590Z,2.43
2022-08-11T14:35:20.385Z,2.77
2022-08-11T14:37:23.581Z,2.90
2022-08-11T14:39:27.276Z,2.30
2022-08-11T14:42:10.219Z,2.70
2022-08-11T14:44:16.359Z,2.30
2022-08-11T14:46:30.049Z,2.80
2022-08-11T14:48:32.760Z,2.47
2022-08-11T14:50:36.657Z,2.20
2022-08-11T14:52:39.367Z,2.50
2022-08-11T14:54:54.166Z,2.40
2022-08-11T14:57:00.008Z,2.80
2022-08-11T14:59:02.770Z,2.30
2022-08-11T15:01:26.351Z,2.50
2022-08-11T15:03:30.326Z,2.87
2022-08-11T15:05:32.974Z,2.50
2022-08-11T15:07:35.902Z,2.50
2022-08-11T15:10:02.466Z,2.40
2022-08-11T15:12:31.488Z,2.47
2022-08-11T15:14:47.088Z,2.50
2022-08-11T15:17:01.077Z,2.40
2022-08-11T15:19:05.054Z,2.40
2022-08-11T15:21:20.522Z,2.50
2022-08-11T15:23:34.172Z,2.17
2022-08-11T15:25:36.847Z,2.70
2022-08-11T15:27:51.812Z,2.80
2022-08-11T15:30:09.383Z,2.60
2022-08-11T15:32:29.523Z,2.27
2022-08-11T15:34:43.237Z,2.70
2022-08-11T15:36:57.735Z,2.13
2022-08-11T15:39:01.261Z,2.50
2022-08-11T15:41:14.998Z,2.60
2022-08-11T15:43:33.411Z,2.70
2022-08-11T15:45:47.787Z,2.63
2022-08-11T15:47:57.509Z,2.83
2022-08-11T15:50:12.109Z,2.97
2022-08-11T15:52:18.738Z,2.37
2022-08-11T15:54:24.169Z,2.70
2022-08-11T15:56:27.371Z,2.80
2022-08-11T15:58:44.838Z,2.50
2022-08-11T16:01:04.300Z,2.80
2022-08-11T16:03:22.531Z,2.40
2022-08-11T16:05:25.770Z,2.57
2022-08-11T16:07:49.083Z,2.63
2022-08-11T16:10:00.055Z,2.57
2022-08-11T16:12:04.481Z,2.20
2022-08-11T16:14:19.775Z,2.97
2022-08-11T16:16:21.797Z,2.43
2022-08-11T16:18:40.575Z,2.87
2022-08-11T16:20:43.442Z,2.77
2022-08-11T16:22:57.142Z,2.50
2022-08-11T16:27:02.535Z,2.30
2022-08-11T16:27:29.264Z,2.47
2022-08-11T16:29:33.671Z,2.20
2022-08-11T16:31:36.860Z,2.30
2022-08-11T16:33:50.604Z,2.53
2022-08-11T16:36:05.228Z,2.57
2022-08-11T16:38:22.094Z,2.60
2022-08-11T16:40:24.736Z,2.40
2022-08-11T16:43:05.357Z,2.17
2022-08-11T16:45:13.743Z,2.57
2022-08-11T16:47:17.727Z,2.57
2022-08-11T16:49:43.023Z,2.40
2022-08-11T16:51:49.890Z,2.17
2022-08-11T16:54:04.330Z,2.40
2022-08-11T16:56:08.840Z,2.50
2022-08-11T16:58:22.507Z,2.90
2022-08-11T17:00:26.502Z,2.63
2022-08-11T17:02:43.968Z,2.33
2022-08-11T17:05:00.646Z,2.23
2022-08-11T17:07:23.803Z,2.53
2022-08-11T17:09:47.865Z,2.83
2022-08-11T17:12:07.953Z,2.30
2022-08-11T17:14:12.923Z,2.47
2022-08-11T17:16:19.083Z,2.70
2022-08-11T17:18:36.714Z,2.37
2022-08-11T17:20:43.736Z,2.80
2022-08-11T17:22:58.208Z,2.10
2022-08-11T17:25:05.283Z,2.53
2022-08-11T17:27:09.253Z,2.73
2022-08-11T17:29:12.076Z,2.23
2022-08-11T17:31:27.115Z,2.63
2022-08-11T17:33:42.662Z,2.20
2022-08-11T17:35:45.747Z,2.30
2022-08-11T17:37:49.619Z,2.20
2022-08-11T17:39:55.849Z,2.00
2022-08-11T17:42:11.888Z,2.30
2022-08-11T17:44:26.202Z,2.40
2022-08-11T17:46:40.808Z,2.57
2022-08-11T17:48:47.367Z,3.17
2022-08-11T17:50:52.845Z,2.50
2022-08-11T17:53:07.826Z,2.50
2022-08-11T17:55:51.639Z,2.80
2022-08-11T17:57:55.039Z,2.20
2022-08-11T17:59:57.963Z,2.77
2022-08-11T18:02:23.065Z,2.27
2022-08-11T18:04:38.583Z,2.43
2022-08-11T18:06:41.480Z,2.67
2022-08-11T18:08:56.149Z,2.50
2022-08-11T18:11:09.978Z,2.70
2022-08-11T18:13:23.614Z,2.47
2022-08-11T18:15:37.733Z,2.10
2022-08-11T18:17:53.434Z,2.53
2022-08-11T18:20:08.344Z,2.30
2022-08-11T18:22:28.150Z,2.60
2022-08-11T18:24:43.494Z,2.67
2022-08-11T18:26:57.101Z,2.30
2022-08-11T18:29:10.724Z,2.80
2022-08-11T18:31:25.965Z,2.70
2022-08-11T18:34:03.770Z,2.47
2022-08-11T18:36:15.763Z,2.67
2022-08-11T18:38:29.425Z,2.97
2022-08-11T18:40:48.683Z,2.87
2022-08-11T18:43:02.749Z,2.60
2022-08-11T18:45:19.823Z,2.90
2022-08-11T18:47:33.897Z,2.70
2022-08-11T18:50:03.846Z,2.60
2022-08-11T18:52:20.617Z,2.70
2022-08-11T18:54:34.221Z,2.70
2022-08-11T18:56:48.310Z,2.90
2022-08-11T18:59:02.000Z,2.63
2022-08-11T19:01:19.550Z,2.90
2022-08-11T19:03:43.370Z,2.97
2022-08-11T19:06:31.771Z,4.20
2022-08-11T19:08:39.962Z,3.20
2022-08-11T19:10:54.344Z,2.93
2022-08-11T19:13:07.991Z,2.70
2022-08-11T19:15:21.936Z,3.00
2022-08-11T19:17:44.490Z,3.10
2022-08-11T19:19:59.560Z,2.73
2022-08-11T19:22:13.627Z,3.40
2022-08-11T19:24:29.052Z,3.27
2022-08-11T19:26:42.726Z,3.67
2022-08-11T19:28:57.687Z,3.57
2022-08-11T19:31:11.695Z,3.13
2022-08-11T19:33:59.799Z,3.97
2022-08-11T19:35:59.036Z,2.60
2022-08-11T19:38:13.200Z,3.63
2022-08-11T19:40:28.129Z,3.40
2022-08-11T19:42:41.765Z,3.27
2022-08-11T19:44:56.727Z,2.97
2022-08-11T19:47:10.393Z,3.30
2022-08-11T19:49:23.994Z,3.07
2022-08-11T19:51:38.011Z,3.33
2022-08-11T19:53:51.741Z,3.23
2022-08-11T19:56:06.633Z,3.27
2022-08-11T19:58:21.625Z,5.97
2022-08-11T20:00:35.305Z,3.57
2022-08-11T20:02:48.901Z,3.80
2022-08-11T20:05:02.854Z,4.27
2022-08-11T20:07:16.550Z,5.10
2022-08-11T20:10:05.453Z,4.33
2022-08-11T20:12:09.613Z,12.90
2022-08-11T20:14:23.250Z,4.40
2022-08-11T20:16:36.910Z,4.03
2022-08-11T20:18:50.858Z,4.90
2022-08-11T20:21:05.703Z,5.03
2022-08-11T20:23:39.324Z,4.40
2022-08-11T20:26:03.353Z,5.00
2022-08-11T20:28:23.856Z,5.77
2022-08-11T20:30:37.634Z,6.97
2022-08-11T20:32:52.000Z,4.83
2022-08-11T20:35:05.671Z,4.70
2022-08-11T20:37:19.300Z,4.87
2022-08-11T20:39:33.441Z,4.40
2022-08-11T20:41:58.725Z,4.80
2022-08-11T20:44:14.627Z,4.50
2022-08-11T20:46:29.457Z,5.00
2022-08-11T20:48:43.411Z,4.73
2022-08-11T20:51:00.095Z,4.90
2022-08-11T20:53:20.408Z,4.97
2022-08-11T20:55:51.445Z,4.73
2022-08-11T20:58:07.252Z,4.70
2022-08-11T21:00:39.670Z,4.20
2022-08-11T21:02:53.846Z,4.20
2022-08-11T21:05:08.124Z,3.97
2022-08-11T21:07:29.702Z,4.10
2022-08-11T21:10:01.108Z,4.30
2022-08-11T21:12:20.661Z,5.03
2022-08-11T21:14:34.909Z,4.30
2022-08-11T21:16:49.797Z,4.63
2022-08-11T21:19:03.986Z,3.57
2022-08-11T21:21:24.133Z,4.20
2022-08-11T21:23:38.041Z,4.40
2022-08-11T21:25:54.937Z,4.30
2022-08-11T21:28:10.631Z,4.37
2022-08-11T21:30:24.405Z,3.90
2022-08-11T21:32:39.445Z,3.90
2022-08-11T21:34:55.195Z,3.87
2022-08-11T21:37:09.471Z,3.80
2022-08-11T21:39:25.079Z,3.70
2022-08-11T21:41:39.044Z,3.70
2022-08-11T21:43:52.651Z,3.73
2022-08-11T21:46:06.280Z,3.17
2022-08-11T21:48:21.617Z,4.30
2022-08-11T21:50:36.652Z,4.00
2022-08-11T21:52:50.394Z,3.63
2022-08-11T21:55:06.712Z,3.97
2022-08-11T21:57:20.380Z,3.40
2022-08-11T21:59:35.703Z,2.97
2022-08-11T22:01:57.081Z,3.30
2022-08-11T22:04:12.075Z,4.03
2022-08-11T22:06:25.754Z,4.10
2022-08-11T22:08:39.885Z,3.70
2022-08-11T22:10:53.489Z,3.00
2022-08-11T22:13:07.139Z,3.30
2022-08-11T22:15:22.250Z,2.70
2022-08-11T22:17:36.254Z,2.73
2022-08-11T22:19:51.686Z,3.27
2022-08-11T22:22:06.952Z,3.60
2022-08-11T22:24:30.173Z,3.87
2022-08-11T22:26:47.322Z,3.40
2022-08-11T22:29:01.885Z,3.47
2022-08-11T22:31:15.526Z,3.27
2022-08-11T22:33:29.122Z,4.37
2022-08-11T22:35:44.525Z,3.47
2022-08-11T22:37:58.319Z,3.10
2022-08-11T22:40:12.106Z,5.03
2022-08-11T22:42:33.557Z,7.03
2022-08-11T22:44:47.722Z,5.17
2022-08-11T22:47:01.664Z,5.03
2022-08-11T22:49:16.052Z,5.90
2022-08-11T22:51:31.116Z,4.40
2022-08-11T22:53:57.380Z,3.47
2022-08-11T22:56:12.779Z,4.50
2022-08-11T22:58:26.989Z,4.00
2022-08-11T23:00:40.597Z,4.90
2022-08-11T23:02:54.518Z,3.70
2022-08-11T23:05:08.110Z,3.93
2022-08-11T23:07:49.721Z,3.90
2022-08-11T23:09:57.043Z,4.80
2022-08-11T23:12:10.764Z,3.67
2022-08-11T23:14:25.446Z,3.40
2022-08-11T23:16:43.824Z,3.90
2022-08-11T23:18:57.448Z,3.33
2022-08-11T23:21:11.350Z,3.20
2022-08-11T23:23:26.814Z,3.07
2022-08-11T23:25:40.457Z,2.90
2022-08-11T23:27:54.064Z,3.47
2022-08-11T23:30:09.600Z,3.00
2022-08-11T23:32:23.584Z,3.17
2022-08-11T23:35:03.835Z,3.00
2022-08-11T23:37:12.924Z,2.90
2022-08-11T23:39:28.126Z,3.40
2022-08-11T23:41:41.807Z,2.90
2022-08-11T23:43:55.737Z,2.90
2022-08-11T23:46:09.557Z,2.90
2022-08-11T23:48:25.050Z,3.43
2022-08-11T23:50:39.022Z,2.87
2022-08-11T23:52:52.659Z,2.90
2022-08-11T23:55:07.554Z,3.33
2022-08-11T23:57:22.509Z,3.13
2022-08-11T23:59:36.270Z,3.50
